Terminal Aerodrome Forecast
Issued by NWS Omaha/Valley, NE

Home | Current Version | Previous Version | Text Only | Print | Product List | Glossary On
Versions: 1 2 3 4 5 6 7 8 9 10 11 12 13 14 15 16 17 18 19
000
FTUS43 KOAX 290026 AAA
TAFLNK
TAF AMD
KLNK 290026Z 2900/2924 02014KT P6SM OVC012
      TEMPO 2900/2903 4SM -DZ BR OVC008
     FM290500 02011KT P6SM OVC015
     FM290900 03013KT P6SM VCSH OVC030
     FM291300 03016G24KT 5SM -RA OVC020
     FM291600 03017G25KT 4SM -RA OVC008
     FM291800 03018KT 2SM RA OVC007=

USA.gov is the U.S. government's official web portal to all federal, state and local government web resources and services.